createdAt,value
2018-01-24T00:00:42.789Z,79.53
2018-01-24T00:03:11.471Z,79.67
2018-01-24T00:05:40.380Z,79.75
2018-01-24T00:08:09.080Z,79.73
2018-01-24T00:10:37.590Z,79.67
2018-01-24T00:13:06.110Z,79.61
2018-01-24T00:15:34.566Z,79.65
2018-01-24T00:18:03.067Z,79.71
2018-01-24T00:20:31.547Z,79.69
2018-01-24T00:23:00.028Z,79.69
2018-01-24T00:25:28.620Z,79.70
2018-01-24T00:27:58.075Z,79.64
2018-01-24T00:30:26.544Z,79.59
2018-01-24T00:32:54.982Z,79.66
2018-01-24T00:35:23.672Z,79.70
2018-01-24T00:37:52.099Z,79.70
2018-01-24T00:40:20.580Z,79.71
2018-01-24T00:42:49.298Z,79.71
2018-01-24T00:45:17.790Z,79.68
2018-01-24T00:47:46.256Z,79.65
2018-01-24T00:50:15.117Z,79.62
2018-01-24T00:52:43.647Z,79.57
2018-01-24T00:55:12.316Z,79.55
2018-01-24T00:57:41.219Z,79.46
2018-01-24T01:00:10.069Z,79.45
2018-01-24T01:02:38.544Z,79.44
2018-01-24T01:05:07.140Z,79.49
2018-01-24T01:07:35.601Z,79.41
2018-01-24T01:10:04.060Z,79.37
2018-01-24T01:12:32.594Z,79.25
2018-01-24T01:15:01.080Z,79.23
2018-01-24T01:17:29.713Z,79.30
2018-01-24T01:19:58.211Z,79.33
2018-01-24T01:22:26.622Z,79.28
2018-01-24T01:24:55.057Z,79.15
2018-01-24T01:27:24.552Z,79.08
2018-01-24T01:29:52.984Z,79.03
2018-01-24T01:32:21.433Z,79.01
2018-01-24T01:34:49.996Z,78.93
2018-01-24T01:37:18.433Z,79.01
2018-01-24T01:39:46.985Z,78.98
2018-01-24T01:42:15.633Z,79.04
2018-01-24T01:44:44.201Z,79.06
2018-01-24T01:47:12.830Z,79.13
2018-01-24T01:49:41.496Z,79.21
2018-01-24T01:52:10.057Z,79.22
2018-01-24T01:54:38.518Z,79.10
2018-01-24T01:57:07.128Z,79.26
2018-01-24T01:59:36.008Z,79.33
2018-01-24T02:02:04.510Z,79.43
2018-01-24T02:04:32.974Z,79.47
2018-01-24T02:07:01.487Z,79.49
2018-01-24T02:09:29.912Z,79.47
2018-01-24T02:11:58.396Z,79.45
2018-01-24T02:14:27.078Z,79.45
2018-01-24T02:16:55.511Z,79.51
2018-01-24T02:19:23.965Z,79.52
2018-01-24T02:21:52.832Z,79.53
2018-01-24T02:24:21.334Z,79.47
2018-01-24T02:26:49.903Z,79.40
2018-01-24T02:29:18.387Z,79.43
2018-01-24T02:31:46.970Z,79.49
2018-01-24T02:34:15.751Z,79.56
2018-01-24T02:36:44.354Z,79.64
2018-01-24T02:39:15.885Z,79.66
2018-01-24T02:41:44.437Z,79.66
2018-01-24T02:44:13.013Z,79.64
2018-01-24T02:46:41.510Z,79.63
2018-01-24T02:49:10.038Z,79.64
2018-01-24T02:51:38.519Z,79.73
2018-01-24T02:54:07.839Z,79.81
2018-01-24T02:56:36.318Z,79.88
2018-01-24T02:59:04.780Z,79.98
2018-01-24T03:01:33.311Z,80.02
2018-01-24T03:04:01.788Z,80.02
2018-01-24T03:06:30.234Z,80.00
2018-01-24T03:08:58.680Z,79.94
2018-01-24T03:11:27.375Z,79.88
2018-01-24T03:13:55.821Z,79.88
2018-01-24T03:16:24.370Z,79.91
2018-01-24T03:18:52.850Z,79.87
2018-01-24T03:21:21.348Z,79.86
2018-01-24T03:23:49.825Z,79.86
2018-01-24T03:26:18.712Z,79.85
2018-01-24T03:28:47.197Z,79.82
2018-01-24T03:31:15.677Z,79.83
2018-01-24T03:33:44.262Z,79.87
2018-01-24T03:36:12.840Z,79.84
2018-01-24T03:38:41.785Z,79.81
2018-01-24T03:41:10.326Z,79.74
2018-01-24T03:43:38.883Z,79.66
2018-01-24T03:46:07.433Z,79.63
2018-01-24T03:48:35.913Z,79.62
2018-01-24T03:51:04.348Z,79.54
2018-01-24T03:53:32.814Z,79.35
2018-01-24T03:56:01.500Z,79.15
2018-01-24T03:58:29.973Z,79.11
2018-01-24T04:00:58.448Z,79.01
2018-01-24T04:03:27.313Z,79.03
2018-01-24T04:05:55.824Z,79.00
2018-01-24T04:08:24.322Z,78.90
2018-01-24T04:10:53.304Z,78.47
2018-01-24T04:13:21.782Z,78.28
2018-01-24T04:15:50.271Z,78.29
2018-01-24T04:18:19.091Z,78.25
2018-01-24T04:20:47.634Z,78.28
2018-01-24T04:23:16.141Z,78.22
2018-01-24T04:25:44.942Z,78.19
2018-01-24T04:28:13.493Z,78.13
2018-01-24T04:30:42.098Z,77.82
2018-01-24T04:33:10.791Z,77.72
2018-01-24T04:35:39.270Z,77.62
2018-01-24T04:38:07.794Z,77.68
2018-01-24T04:40:36.577Z,77.62
2018-01-24T04:43:05.012Z,77.55
2018-01-24T04:45:33.536Z,77.51
2018-01-24T04:48:02.381Z,77.46
2018-01-24T04:50:31.490Z,77.33
2018-01-24T04:53:00.004Z,77.30
2018-01-24T04:55:28.479Z,77.16
2018-01-24T04:57:58.061Z,76.97
2018-01-24T05:00:26.598Z,76.73
2018-01-24T05:02:55.157Z,76.61
2018-01-24T05:05:23.665Z,76.63
2018-01-24T05:07:52.143Z,76.77
2018-01-24T05:10:20.761Z,76.76
2018-01-24T05:12:49.388Z,76.69
2018-01-24T05:15:17.924Z,76.68
2018-01-24T05:17:46.613Z,76.74
2018-01-24T05:20:15.258Z,76.86
2018-01-24T05:22:44.768Z,76.82
2018-01-24T05:25:13.657Z,76.79
2018-01-24T05:27:42.170Z,76.82
2018-01-24T05:30:11.063Z,76.92
2018-01-24T05:32:39.804Z,76.93
2018-01-24T05:35:08.286Z,76.93
2018-01-24T05:37:37.025Z,76.89
2018-01-24T05:40:05.518Z,76.96
2018-01-24T05:42:34.098Z,76.97
2018-01-24T05:45:02.589Z,76.97
2018-01-24T05:47:31.095Z,76.97
2018-01-24T05:49:59.515Z,76.86
2018-01-24T05:52:27.969Z,77.04
2018-01-24T05:54:56.450Z,77.02
2018-01-24T05:57:24.964Z,76.90
2018-01-24T05:59:53.609Z,76.77
2018-01-24T06:02:22.105Z,76.67
2018-01-24T06:04:50.584Z,76.54
2018-01-24T06:07:19.460Z,76.37
2018-01-24T06:09:48.374Z,76.37
2018-01-24T06:12:16.873Z,76.21
2018-01-24T06:14:45.413Z,76.21
2018-01-24T06:17:14.144Z,76.26
2018-01-24T06:19:42.698Z,76.18
2018-01-24T06:22:11.180Z,76.21
2018-01-24T06:24:40.607Z,76.21
2018-01-24T06:27:09.127Z,76.33
2018-01-24T06:29:37.642Z,76.20
2018-01-24T06:32:06.317Z,76.12
2018-01-24T06:34:34.788Z,76.05
2018-01-24T06:37:03.256Z,75.99
2018-01-24T06:39:31.823Z,75.93
2018-01-24T06:42:00.382Z,75.89
2018-01-24T06:44:28.922Z,75.69
2018-01-24T06:46:57.439Z,75.75
2018-01-24T06:49:25.883Z,75.75
2018-01-24T06:51:57.565Z,75.58
2018-01-24T06:54:26.502Z,75.61
2018-01-24T06:56:55.113Z,75.45
2018-01-24T06:59:24.701Z,75.23
2018-01-24T07:01:59.265Z,74.89
2018-01-24T07:04:27.777Z,74.87
2018-01-24T07:06:56.282Z,74.75
2018-01-24T07:09:24.783Z,75.05
2018-01-24T07:11:53.270Z,74.59
2018-01-24T07:14:33.806Z,74.60
2018-01-24T07:17:02.271Z,74.84
2018-01-24T07:19:30.870Z,74.79
2018-01-24T07:21:59.360Z,74.75
2018-01-24T07:24:28.193Z,74.78
2018-01-24T07:26:56.630Z,74.68
2018-01-24T07:29:25.300Z,74.67
2018-01-24T07:31:53.803Z,74.65
2018-01-24T07:34:22.302Z,74.53
2018-01-24T07:36:51.015Z,74.49
2018-01-24T07:39:19.495Z,74.51
2018-01-24T07:41:47.988Z,74.49
2018-01-24T07:44:16.513Z,75.17
2018-01-24T07:46:45.278Z,74.90
2018-01-24T07:49:14.271Z,74.65
2018-01-24T07:51:43.060Z,74.64
2018-01-24T07:54:11.626Z,74.85
2018-01-24T07:56:40.192Z,74.73
2018-01-24T07:59:09.672Z,74.95
2018-01-24T08:01:38.232Z,74.87
2018-01-24T08:04:06.709Z,74.65
2018-01-24T08:06:35.453Z,74.56
2018-01-24T08:09:04.001Z,74.56
2018-01-24T08:11:32.940Z,74.55
2018-01-24T08:14:01.482Z,74.48
2018-01-24T08:16:29.906Z,74.41
2018-01-24T08:18:58.955Z,74.49
2018-01-24T08:21:27.428Z,74.45
2018-01-24T08:23:55.863Z,74.46
2018-01-24T08:26:24.364Z,74.44
2018-01-24T08:28:52.924Z,74.63
2018-01-24T08:31:21.380Z,74.66
2018-01-24T08:33:49.868Z,74.53
2018-01-24T08:36:18.874Z,74.32
2018-01-24T08:38:47.458Z,74.21
2018-01-24T08:41:16.043Z,74.08
2018-01-24T08:43:44.630Z,74.12
2018-01-24T08:46:13.573Z,73.96
2018-01-24T08:48:42.532Z,74.13
2018-01-24T08:51:11.739Z,73.77
2018-01-24T08:53:40.207Z,73.67
2018-01-24T08:56:09.480Z,73.63
2018-01-24T08:58:37.998Z,73.73
2018-01-24T09:01:06.567Z,73.54
2018-01-24T09:03:35.006Z,73.53
2018-01-24T09:06:03.467Z,73.69
2018-01-24T09:08:31.922Z,73.67
2018-01-24T09:11:00.363Z,73.50
2018-01-24T09:13:29.057Z,73.42
2018-01-24T09:15:57.634Z,73.76
2018-01-24T09:18:26.117Z,73.75
2018-01-24T09:20:54.594Z,73.82
2018-01-24T09:23:23.021Z,73.97
2018-01-24T09:25:51.557Z,74.00
2018-01-24T09:28:20.158Z,73.95
2018-01-24T09:30:48.644Z,74.01
2018-01-24T09:33:17.202Z,74.01
2018-01-24T09:35:45.992Z,74.21
2018-01-24T09:38:14.817Z,74.14
2018-01-24T09:40:43.398Z,74.21
2018-01-24T09:43:12.277Z,74.33
2018-01-24T09:45:40.963Z,74.14
2018-01-24T09:48:09.463Z,74.40
2018-01-24T09:50:38.408Z,74.49
2018-01-24T09:53:06.834Z,74.40
2018-01-24T09:55:35.339Z,74.38
2018-01-24T09:58:03.847Z,74.53
2018-01-24T10:00:32.277Z,74.76
2018-01-24T10:03:00.707Z,74.80
2018-01-24T10:05:29.265Z,74.91
2018-01-24T10:07:57.706Z,75.08
2018-01-24T10:10:26.174Z,75.40
2018-01-24T10:12:54.850Z,75.60
2018-01-24T10:15:23.630Z,75.65
2018-01-24T10:17:52.179Z,75.64
2018-01-24T10:20:21.226Z,75.55
2018-01-24T10:22:49.815Z,75.57
2018-01-24T10:25:18.909Z,75.43
2018-01-24T10:27:47.832Z,75.41
2018-01-24T10:30:16.778Z,75.40
2018-01-24T10:32:45.754Z,75.21
2018-01-24T10:35:14.458Z,75.15
2018-01-24T10:37:43.071Z,75.06
2018-01-24T10:40:12.256Z,75.06
2018-01-24T10:42:40.935Z,75.05
2018-01-24T10:45:09.745Z,75.02
2018-01-24T10:47:38.366Z,74.80
2018-01-24T10:50:06.861Z,74.66
2018-01-24T10:52:35.289Z,74.28
2018-01-24T10:55:03.722Z,74.20
2018-01-24T10:57:32.354Z,74.09
2018-01-24T11:00:00.801Z,73.83
2018-01-24T11:02:29.345Z,73.63
2018-01-24T11:04:57.859Z,73.48
2018-01-24T11:07:26.485Z,73.19
2018-01-24T11:09:54.926Z,73.04
2018-01-24T11:12:23.407Z,73.03
2018-01-24T11:14:51.962Z,72.87
2018-01-24T11:17:20.447Z,72.60
2018-01-24T11:19:49.077Z,72.64
2018-01-24T11:22:18.140Z,72.41
2018-01-24T11:24:46.684Z,72.26
2018-01-24T11:27:15.583Z,72.19
2018-01-24T11:29:44.156Z,72.11
2018-01-24T11:32:12.992Z,71.92
2018-01-24T11:34:42.091Z,71.80
2018-01-24T11:37:10.878Z,71.71
2018-01-24T11:39:39.357Z,71.57
2018-01-24T11:42:07.836Z,71.32
2018-01-24T11:44:36.370Z,71.49
2018-01-24T11:47:04.891Z,71.20
2018-01-24T11:49:33.386Z,71.20
2018-01-24T11:52:01.818Z,71.06
2018-01-24T11:54:30.421Z,71.06
2018-01-24T11:56:58.901Z,70.88
2018-01-24T11:59:27.306Z,70.85
2018-01-24T12:01:55.810Z,70.73
2018-01-24T12:04:25.367Z,70.64
2018-01-24T12:06:53.798Z,70.70
2018-01-24T12:09:22.652Z,70.76
2018-01-24T12:11:52.382Z,70.77
2018-01-24T12:14:20.965Z,70.72
2018-01-24T12:16:49.540Z,70.66
2018-01-24T12:19:18.383Z,70.42
2018-01-24T12:21:46.960Z,70.25
2018-01-24T12:24:15.648Z,70.10
2018-01-24T12:26:44.900Z,69.98
2018-01-24T12:29:13.481Z,69.73
2018-01-24T12:31:42.004Z,69.75
2018-01-24T12:34:10.570Z,69.50
2018-01-24T12:36:39.437Z,69.50
2018-01-24T12:39:07.835Z,69.48
2018-01-24T12:41:36.397Z,69.47
2018-01-24T12:44:04.855Z,69.55
2018-01-24T12:46:33.304Z,69.55
2018-01-24T12:49:01.998Z,69.55
2018-01-24T12:51:30.401Z,69.57
2018-01-24T12:53:58.904Z,69.46
2018-01-24T12:56:27.360Z,69.40
2018-01-24T12:58:55.802Z,69.70
2018-01-24T13:01:24.279Z,69.36
2018-01-24T13:03:53.168Z,69.00
2018-01-24T13:06:21.665Z,69.01
2018-01-24T13:08:50.918Z,68.96
2018-01-24T13:11:19.707Z,68.92
2018-01-24T13:13:48.212Z,68.80
2018-01-24T13:16:17.115Z,68.60
2018-01-24T13:18:45.896Z,68.47
2018-01-24T13:21:14.833Z,68.38
2018-01-24T13:23:43.830Z,68.40
2018-01-24T13:26:12.542Z,68.40
2018-01-24T13:28:41.357Z,68.62
2018-01-24T13:31:10.164Z,68.63
2018-01-24T13:33:38.644Z,68.40
2018-01-24T13:36:07.121Z,68.20
2018-01-24T13:38:35.649Z,68.11
2018-01-24T13:41:04.420Z,67.96
2018-01-24T13:43:32.903Z,67.88
2018-01-24T13:46:01.320Z,67.92
2018-01-24T13:48:30.627Z,67.77
2018-01-24T13:50:59.184Z,67.76
2018-01-24T13:53:27.686Z,67.72
2018-01-24T13:55:56.172Z,67.76
2018-01-24T13:58:24.609Z,67.71
2018-01-24T14:00:53.053Z,67.90
2018-01-24T14:03:21.910Z,67.96
2018-01-24T14:05:50.504Z,67.70
2018-01-24T14:08:19.546Z,67.62
2018-01-24T14:10:48.482Z,67.48
2018-01-24T14:13:17.136Z,67.38
2018-01-24T14:15:45.691Z,67.47
2018-01-24T14:18:14.668Z,67.49
2018-01-24T14:20:44.235Z,67.74
2018-01-24T14:23:12.898Z,67.64
2018-01-24T14:25:41.423Z,67.96
2018-01-24T14:28:09.928Z,67.64
2018-01-24T14:30:38.427Z,67.48
2018-01-24T14:33:07.166Z,67.45
2018-01-24T14:35:35.607Z,67.55
2018-01-24T14:38:04.090Z,67.42
2018-01-24T14:40:32.541Z,67.30
2018-01-24T14:43:01.056Z,67.23
2018-01-24T14:45:29.501Z,67.36
2018-01-24T14:47:58.041Z,67.27
2018-01-24T14:50:26.457Z,67.22
2018-01-24T14:52:54.905Z,67.25
2018-01-24T14:55:23.627Z,67.19
2018-01-24T14:57:52.276Z,67.28
2018-01-24T15:00:20.809Z,67.32
2018-01-24T15:02:49.435Z,67.38
2018-01-24T15:05:17.929Z,67.38
2018-01-24T15:07:47.969Z,67.30
2018-01-24T15:10:17.907Z,67.20
2018-01-24T15:12:46.691Z,67.25
2018-01-24T15:15:15.188Z,67.21
2018-01-24T15:17:44.642Z,67.36
2018-01-24T15:20:13.495Z,67.38
2018-01-24T15:22:42.168Z,67.63
2018-01-24T15:25:11.775Z,67.53
2018-01-24T15:27:40.704Z,67.50
2018-01-24T15:30:09.209Z,67.57
2018-01-24T15:32:37.662Z,67.69
2018-01-24T15:35:06.094Z,67.69
2018-01-24T15:37:34.555Z,67.63
2018-01-24T15:40:03.847Z,67.67
2018-01-24T15:42:32.285Z,67.79
2018-01-24T15:45:00.738Z,67.91
2018-01-24T15:47:29.466Z,68.04
2018-01-24T15:49:57.898Z,68.39
2018-01-24T15:52:26.306Z,68.61
2018-01-24T15:54:54.944Z,68.79
2018-01-24T15:57:23.369Z,68.96
2018-01-24T15:59:51.825Z,69.28
2018-01-24T16:02:20.549Z,69.65
2018-01-24T16:04:49.117Z,70.76
2018-01-24T16:07:17.628Z,71.60
2018-01-24T16:09:46.254Z,72.12
2018-01-24T16:12:14.794Z,72.10
2018-01-24T16:14:43.661Z,71.96
2018-01-24T16:17:12.244Z,71.93
2018-01-24T16:19:41.805Z,71.90
2018-01-24T16:22:10.393Z,71.77
2018-01-24T16:24:39.266Z,71.64
2018-01-24T16:27:07.798Z,71.22
2018-01-24T16:29:37.340Z,70.97
2018-01-24T16:32:05.829Z,70.57
2018-01-24T16:34:34.287Z,70.28
2018-01-24T16:37:02.705Z,70.01
2018-01-24T16:39:31.308Z,69.70
2018-01-24T16:41:59.741Z,69.62
2018-01-24T16:44:28.220Z,69.24
2018-01-24T16:46:56.949Z,68.80
2018-01-24T16:49:25.357Z,68.65
2018-01-24T16:51:53.772Z,68.45
2018-01-24T16:54:22.358Z,67.98
2018-01-24T16:56:50.786Z,67.91
2018-01-24T16:59:19.210Z,67.75
2018-01-24T17:01:47.859Z,67.64
2018-01-24T17:04:16.361Z,67.51
2018-01-24T17:06:44.925Z,67.37
2018-01-24T17:09:13.848Z,67.10
2018-01-24T17:11:42.435Z,66.98
2018-01-24T17:14:10.999Z,66.71
2018-01-24T17:16:39.499Z,66.57
2018-01-24T17:19:07.962Z,66.38
2018-01-24T17:21:36.381Z,66.16
2018-01-24T17:24:05.037Z,66.18
2018-01-24T17:26:33.474Z,66.03
2018-01-24T17:29:01.894Z,65.97
2018-01-24T17:31:30.358Z,65.83
2018-01-24T17:33:58.815Z,65.73
2018-01-24T17:36:27.234Z,65.51
2018-01-24T17:38:55.739Z,65.56
2018-01-24T17:41:24.143Z,65.40
2018-01-24T17:43:52.629Z,65.22
2018-01-24T17:46:21.081Z,65.29
2018-01-24T17:48:49.632Z,65.21
2018-01-24T17:51:18.127Z,65.11
2018-01-24T17:53:46.652Z,65.18
2018-01-24T17:56:15.110Z,65.14
2018-01-24T17:58:43.609Z,64.96
2018-01-24T18:01:12.127Z,65.02
2018-01-24T18:03:40.715Z,65.16
2018-01-24T18:06:12.123Z,65.11
2018-01-24T18:08:40.647Z,65.10
2018-01-24T18:11:09.080Z,64.96
2018-01-24T18:13:37.505Z,64.93
2018-01-24T18:16:06.011Z,64.91
2018-01-24T18:18:34.456Z,64.84
2018-01-24T18:21:02.882Z,64.62
2018-01-24T18:23:31.565Z,64.63
2018-01-24T18:26:00.025Z,64.51
2018-01-24T18:28:28.474Z,64.51
2018-01-24T18:30:57.073Z,64.50
2018-01-24T18:33:25.560Z,64.42
2018-01-24T18:35:54.191Z,64.61
2018-01-24T18:38:22.779Z,64.44
2018-01-24T18:40:51.245Z,64.39
2018-01-24T18:43:19.894Z,64.70
2018-01-24T18:45:49.157Z,64.77
2018-01-24T18:48:17.778Z,64.83
2018-01-24T18:50:46.506Z,65.05
2018-01-24T18:53:14.990Z,65.21
2018-01-24T18:55:43.524Z,65.45
2018-01-24T18:58:12.168Z,65.37
2018-01-24T19:00:40.937Z,65.75
2018-01-24T19:03:09.595Z,66.26
2018-01-24T19:05:38.011Z,66.24
2018-01-24T19:08:06.470Z,66.58
2018-01-24T19:10:34.901Z,66.82
2018-01-24T19:13:03.590Z,66.97
2018-01-24T19:15:32.225Z,66.95
2018-01-24T19:18:00.663Z,67.00
2018-01-24T19:20:29.102Z,67.10
2018-01-24T19:22:57.697Z,66.75
2018-01-24T19:25:26.125Z,66.76
2018-01-24T19:27:54.625Z,66.44
2018-01-24T19:30:23.563Z,66.48
2018-01-24T19:32:52.173Z,66.43
2018-01-24T19:35:20.580Z,66.31
2018-01-24T19:37:49.395Z,66.05
2018-01-24T19:40:17.882Z,65.94
2018-01-24T19:42:46.502Z,65.32
2018-01-24T19:45:15.196Z,65.24
2018-01-24T19:47:44.726Z,64.90
2018-01-24T19:50:13.238Z,64.57
2018-01-24T19:52:41.788Z,64.28
2018-01-24T19:55:10.882Z,64.34
2018-01-24T19:57:39.307Z,63.87
2018-01-24T20:00:07.864Z,63.63
2018-01-24T20:02:36.297Z,63.58
2018-01-24T20:05:04.698Z,63.65
2018-01-24T20:07:33.342Z,63.70
2018-01-24T20:10:01.818Z,67.94
2018-01-24T20:12:30.245Z,70.59
2018-01-24T20:14:58.730Z,72.52
2018-01-24T20:17:27.177Z,73.59
2018-01-24T20:19:55.608Z,74.37
2018-01-24T20:22:24.467Z,75.02
2018-01-24T20:24:52.885Z,75.68
2018-01-24T20:27:21.329Z,75.84
2018-01-24T20:29:49.864Z,76.32
2018-01-24T20:32:18.397Z,76.46
2018-01-24T20:34:47.217Z,76.72
2018-01-24T20:37:15.768Z,76.96
2018-01-24T20:39:44.272Z,76.92
2018-01-24T20:42:12.899Z,77.00
2018-01-24T20:44:41.427Z,77.13
2018-01-24T20:47:09.988Z,77.12
2018-01-24T20:49:38.473Z,76.86
2018-01-24T20:52:07.185Z,77.14
2018-01-24T20:54:35.635Z,77.18
2018-01-24T20:57:04.067Z,77.56
2018-01-24T20:59:32.578Z,77.46
2018-01-24T21:02:00.985Z,77.55
2018-01-24T21:04:30.377Z,77.70
2018-01-24T21:06:58.851Z,77.68
2018-01-24T21:09:27.270Z,77.67
2018-01-24T21:11:55.684Z,77.58
2018-01-24T21:14:24.191Z,77.56
2018-01-24T21:16:52.619Z,77.46
2018-01-24T21:19:21.109Z,77.50
2018-01-24T21:21:49.589Z,77.45
2018-01-24T21:24:18.474Z,77.47
2018-01-24T21:26:46.971Z,77.54
2018-01-24T21:29:28.462Z,77.51
2018-01-24T21:35:25.998Z,77.79
2018-01-24T21:37:54.834Z,77.95
2018-01-24T21:40:23.408Z,78.14
2018-01-24T21:42:52.097Z,78.23
2018-01-24T21:45:20.522Z,78.22
2018-01-24T21:47:49.091Z,78.35
2018-01-24T21:50:17.673Z,78.51
2018-01-24T21:52:46.265Z,78.52
2018-01-24T21:55:15.093Z,78.23
2018-01-24T21:57:44.020Z,78.24
2018-01-24T22:00:12.944Z,78.27
2018-01-24T22:02:41.614Z,78.27
2018-01-24T22:05:10.100Z,78.17
2018-01-24T22:07:38.534Z,78.15
2018-01-24T22:10:07.585Z,78.22
2018-01-24T22:12:36.028Z,78.22
2018-01-24T22:15:04.421Z,78.13
2018-01-24T22:17:32.814Z,78.24
2018-01-24T22:22:35.466Z,78.32
2018-01-24T22:25:04.643Z,78.09
2018-01-24T22:27:33.502Z,78.02
2018-01-24T22:30:02.093Z,77.77
2018-01-24T22:32:30.591Z,77.53
2018-01-24T22:34:59.555Z,77.31
2018-01-24T22:37:28.002Z,77.34
2018-01-24T22:39:56.827Z,77.29
2018-01-24T22:42:25.319Z,77.40
2018-01-24T22:44:54.106Z,77.46
2018-01-24T22:47:22.706Z,77.44
2018-01-24T22:49:51.159Z,77.52
2018-01-24T22:52:19.664Z,77.65
2018-01-24T22:54:48.112Z,77.48
2018-01-24T22:57:16.542Z,77.48
2018-01-24T22:59:45.016Z,77.41
2018-01-24T23:02:13.783Z,77.33
2018-01-24T23:04:42.475Z,77.24
2018-01-24T23:07:11.028Z,77.22
2018-01-24T23:09:39.534Z,77.10
2018-01-24T23:12:07.954Z,76.99
2018-01-24T23:14:36.378Z,76.97
2018-01-24T23:17:04.865Z,76.81
2018-01-24T23:19:33.403Z,76.76
2018-01-24T23:22:01.838Z,76.83
2018-01-24T23:24:30.331Z,76.94
2018-01-24T23:26:58.813Z,76.90
2018-01-24T23:29:27.248Z,76.93
2018-01-24T23:31:55.878Z,76.82
2018-01-24T23:34:24.338Z,77.08
2018-01-24T23:36:52.791Z,77.00
2018-01-24T23:39:22.346Z,77.10
2018-01-24T23:41:50.903Z,77.06
2018-01-24T23:44:19.405Z,76.98
2018-01-24T23:46:48.173Z,77.09
2018-01-24T23:49:16.635Z,77.16
2018-01-24T23:51:45.096Z,77.07
2018-01-24T23:54:13.678Z,77.02
2018-01-24T23:56:43.016Z,76.91
2018-01-24T23:59:12.295Z,76.88
